Time;durP1;ratioP1;P1;durP2;ratioP2;P2;SDS_P1;SDS_P2;PMS_P1;PMS_P2;Temp;Humidity;BMP_temperature;BMP_pressure;BME280_temperature;BME280_humidity;BME280_pressure;Samples;Min_cycle;Max_cycle;Signal;HPM_P1;HPM_P2
2022/01/24 00:03:21;;;;;;;17.50;9.70;;;20.10;48.80;;;;;;215337;1296;25275;-52
2022/01/24 00:08:40;;;;;;;14.90;9.20;;;20.10;48.80;;;;;;215358;1296;23108;-51
2022/01/24 00:29:26;;;;;;;17.10;9.70;;;20.40;48.40;;;;;;215235;1296;23525;-50
2022/01/24 00:34:29;;;;;;;13.40;8.50;;;20.50;48.30;;;;;;215407;1293;22905;-52
2022/01/24 00:39:33;;;;;;;14.80;8.80;;;20.50;48.50;;;;;;215497;1293;22576;-53
2022/01/24 00:44:49;;;;;;;15.20;9.40;;;20.60;48.00;;;;;;215470;1293;22644;-53
2022/01/24 00:55:03;;;;;;;14.10;10.00;;;20.60;48.40;;;;;;215339;1293;22608;-52
2022/01/24 01:00:11;;;;;;;11.90;7.60;;;20.80;48.50;;;;;;215493;1296;22747;-51
2022/01/24 01:21:21;;;;;;;14.70;9.00;;;20.90;48.70;;;;;;215751;1293;22601;-51
2022/01/24 01:26:43;;;;;;;12.30;7.90;;;21.00;48.70;;;;;;215541;1293;22597;-54
2022/01/24 01:57:59;;;;;;;12.70;8.80;;;21.40;48.00;;;;;;215642;1293;22570;-51
2022/01/24 02:03:02;;;;;;;11.00;7.60;;;21.40;48.50;;;;;;215431;1293;24243;-53
2022/01/24 02:08:12;;;;;;;12.30;8.00;;;21.30;48.50;;;;;;215347;1296;25359;-52
2022/01/24 02:13:17;;;;;;;11.80;7.50;;;21.30;49.00;;;;;;215410;1296;24266;-54
2022/01/24 02:18:47;;;;;;;12.00;7.20;;;21.30;48.60;;;;;;215359;1293;24358;-53
2022/01/24 02:23:51;;;;;;;10.00;7.10;;;21.30;48.70;;;;;;215334;1293;25437;-53
2022/01/24 02:29:30;;;;;;;11.80;7.30;;;21.30;48.90;;;;;;215520;1296;22848;-51
2022/01/24 02:34:30;;;;;;;11.70;7.00;;;21.30;48.50;;;;;;215394;1294;24289;-53
2022/01/24 02:39:55;;;;;;;11.40;6.80;;;21.30;48.50;;;;;;215361;1293;24930;-54
2022/01/24 02:55:48;;;;;;;10.80;6.70;;;21.40;48.50;;;;;;215285;1293;22573;-53
2022/01/24 03:00:53;;;;;;;10.50;6.60;;;21.40;48.50;;;;;;215396;1296;25303;-50
2022/01/24 03:05:57;;;;;;;9.60;6.30;;;21.40;48.50;;;;;;215439;1293;22607;-51
2022/01/24 03:11:01;;;;;;;10.50;6.20;;;21.40;48.30;;;;;;215420;1293;25464;-54
2022/01/24 03:16:06;;;;;;;10.10;6.10;;;21.40;48.70;;;;;;215321;1296;25470;-52
2022/01/24 03:21:10;;;;;;;9.80;6.10;;;21.40;48.60;;;;;;215776;1296;22619;-52
2022/01/24 03:26:14;;;;;;;10.60;5.90;;;21.50;48.20;;;;;;215273;1296;22598;-53
2022/01/24 03:31:17;;;;;;;10.80;6.30;;;21.50;48.20;;;;;;215463;1293;22613;-54
2022/01/24 03:36:21;;;;;;;10.80;6.40;;;21.50;48.10;;;;;;215093;1296;22732;-51
2022/01/24 03:41:25;;;;;;;8.90;6.10;;;21.60;48.50;;;;;;215552;1296;24422;-52
2022/01/24 03:46:46;;;;;;;10.10;6.30;;;21.60;48.20;;;;;;215507;1296;22579;-55
2022/01/24 03:51:49;;;;;;;8.30;5.80;;;21.60;48.10;;;;;;215396;1294;24358;-54
2022/01/24 03:56:53;;;;;;;10.00;6.00;;;21.60;48.10;;;;;;215317;1294;23091;-53
2022/01/24 04:01:59;;;;;;;10.10;5.80;;;21.70;48.00;;;;;;215317;1296;24437;-52
2022/01/24 04:07:05;;;;;;;9.40;6.10;;;21.70;47.90;;;;;;215513;1296;26616;-51
2022/01/24 04:12:11;;;;;;;8.50;5.60;;;21.70;47.80;;;;;;215375;1294;22570;-52
2022/01/24 04:22:30;;;;;;;9.60;5.60;;;21.80;47.80;;;;;;215703;1293;22576;-51
2022/01/24 04:27:34;;;;;;;8.60;5.70;;;21.90;47.80;;;;;;215338;1296;22584;-52
2022/01/24 04:32:41;;;;;;;8.70;5.20;;;21.90;47.60;;;;;;215148;1296;26567;-51
2022/01/24 04:37:47;;;;;;;10.10;5.70;;;21.90;48.00;;;;;;215349;1294;24304;-53
2022/01/24 04:43:00;;;;;;;9.00;5.70;;;21.90;47.50;;;;;;215428;1296;23049;-52
2022/01/24 04:58:32;;;;;;;9.70;5.90;;;22.00;47.50;;;;;;215275;1296;22576;-51
2022/01/24 05:03:36;;;;;;;11.90;5.70;;;22.00;47.60;;;;;;215651;1293;22578;-53
2022/01/24 05:08:40;;;;;;;16.10;5.90;;;22.00;47.60;;;;;;215285;1293;22581;-51
2022/01/24 05:24:34;;;;;;;7.90;5.40;;;22.20;47.30;;;;;;215366;1293;22730;-51
2022/01/24 05:29:37;;;;;;;7.10;5.10;;;22.20;47.20;;;;;;215533;1293;24370;-57
2022/01/24 05:34:44;;;;;;;8.90;5.60;;;22.20;47.30;;;;;;215261;1293;24361;-51
2022/01/24 05:39:48;;;;;;;9.20;5.30;;;22.30;47.30;;;;;;215323;1296;24358;-53
2022/01/24 05:44:54;;;;;;;7.80;5.00;;;22.30;47.10;;;;;;215355;1293;24353;-51
2022/01/24 05:49:58;;;;;;;9.40;4.80;;;22.30;47.20;;;;;;215385;1293;22920;-50
2022/01/24 05:55:04;;;;;;;7.80;5.30;;;22.30;47.20;;;;;;215175;1294;190691;-52
2022/01/24 06:00:10;;;;;;;7.80;5.00;;;22.40;47.10;;;;;;215359;1293;22606;-53
2022/01/24 06:05:18;;;;;;;8.70;4.40;;;22.40;47.10;;;;;;215345;1293;22572;-52
2022/01/24 06:10:21;;;;;;;8.10;4.90;;;22.50;47.00;;;;;;215456;1293;22592;-53
2022/01/24 06:15:25;;;;;;;6.80;4.20;;;22.50;47.00;;;;;;215263;1296;22585;-54
2022/01/24 06:20:29;;;;;;;8.30;4.80;;;22.50;47.00;;;;;;215045;1293;22622;-51
2022/01/24 06:25:32;;;;;;;7.10;4.80;;;22.50;47.00;;;;;;215126;1293;25320;-54
2022/01/24 06:30:39;;;;;;;12.40;5.20;;;22.60;47.10;;;;;;215296;1293;24358;-55
2022/01/24 06:35:43;;;;;;;7.80;5.20;;;22.70;47.00;;;;;;215382;1293;25296;-52
2022/01/24 06:40:47;;;;;;;8.10;4.50;;;22.80;46.70;;;;;;215309;1293;22579;-53
2022/01/24 06:45:51;;;;;;;11.70;4.70;;;23.00;46.70;;;;;;215682;1293;22570;-57
2022/01/24 06:50:55;;;;;;;8.30;4.70;;;23.00;47.00;;;;;;215372;1296;22634;-56
2022/01/24 06:55:58;;;;;;;12.40;4.90;;;23.00;47.00;;;;;;215248;1296;22638;-59
2022/01/24 07:01:03;;;;;;;8.70;5.00;;;23.00;47.10;;;;;;215278;1293;25414;-57
2022/01/24 07:06:08;;;;;;;14.40;5.40;;;23.10;47.50;;;;;;215524;1296;22602;-61
2022/01/24 07:11:12;;;;;;;9.50;4.60;;;23.10;47.00;;;;;;215009;1293;22603;-56
2022/01/24 07:16:16;;;;;;;10.50;5.00;;;23.20;47.50;;;;;;215489;1293;23840;-58
2022/01/24 07:21:21;;;;;;;8.70;4.10;;;23.20;46.70;;;;;;215328;1293;26576;-56
2022/01/24 07:26:24;;;;;;;10.10;4.80;;;23.30;47.50;;;;;;215331;1293;24334;-58
2022/01/24 07:31:30;;;;;;;10.90;4.30;;;23.30;47.30;;;;;;215349;1293;24281;-58
2022/01/24 07:36:34;;;;;;;12.90;4.50;;;23.40;47.70;;;;;;215368;1293;22617;-57
2022/01/24 07:41:45;;;;;;;8.00;4.30;;;23.30;47.30;;;;;;215182;1293;27053;-57
2022/01/24 07:46:56;;;;;;;8.70;4.00;;;23.40;47.30;;;;;;215364;1293;22630;-58
2022/01/24 07:52:02;;;;;;;11.50;4.10;;;23.40;47.70;;;;;;215228;1293;22573;-58
2022/01/24 07:57:06;;;;;;;6.70;4.20;;;23.50;47.10;;;;;;215021;1293;22614;-57
2022/01/24 08:02:10;;;;;;;9.60;4.40;;;23.40;47.20;;;;;;215268;1293;24148;-57
2022/01/24 08:07:14;;;;;;;10.00;4.20;;;23.40;47.30;;;;;;215405;1293;22612;-57
2022/01/24 08:12:18;;;;;;;11.00;4.80;;;23.40;46.90;;;;;;215433;1293;22801;-61
2022/01/24 08:17:22;;;;;;;7.00;4.20;;;23.40;46.70;;;;;;215368;1294;22978;-57
2022/01/24 08:22:26;;;;;;;10.00;4.50;;;23.40;46.30;;;;;;215529;1296;22650;-58
2022/01/24 08:27:33;;;;;;;8.70;4.30;;;23.50;46.60;;;;;;215320;1293;22720;-55
2022/01/24 08:32:38;;;;;;;7.20;3.90;;;23.50;46.50;;;;;;214950;1293;22570;-54
2022/01/24 08:37:42;;;;;;;8.20;4.10;;;23.50;46.40;;;;;;215341;1293;22569;-53
2022/01/24 08:43:00;;;;;;;9.40;4.60;;;23.50;46.40;;;;;;215455;1293;22583;-52
2022/01/24 08:48:04;;;;;;;11.00;4.50;;;23.40;46.60;;;;;;215421;1293;24281;-55
2022/01/24 08:53:10;;;;;;;7.50;4.10;;;23.50;46.60;;;;;;215235;1293;22615;-56
2022/01/24 08:58:16;;;;;;;8.60;4.60;;;23.40;46.60;;;;;;215341;1293;23028;-51
2022/01/24 09:03:25;;;;;;;6.20;4.70;;;23.40;46.60;;;;;;215240;1293;22642;-51
2022/01/24 09:08:30;;;;;;;7.20;4.30;;;23.50;46.60;;;;;;215304;1293;24458;-51
2022/01/24 09:13:37;;;;;;;7.20;4.20;;;23.60;46.40;;;;;;215331;1293;22705;-55
2022/01/24 09:18:40;;;;;;;6.70;4.30;;;23.60;46.70;;;;;;215472;1293;24445;-57
2022/01/24 09:23:45;;;;;;;8.10;4.50;;;23.60;46.40;;;;;;215463;1293;26657;-56
2022/01/24 09:28:53;;;;;;;8.50;4.20;;;23.60;47.00;;;;;;215711;1293;26611;-55
2022/01/24 09:34:03;;;;;;;6.60;4.60;;;23.60;45.70;;;;;;215813;1293;25638;-56
2022/01/24 09:39:19;;;;;;;7.10;3.70;;;23.60;46.20;;;;;;215657;1293;22741;-51
2022/01/24 09:44:22;;;;;;;7.00;4.20;;;23.60;46.20;;;;;;215578;1293;24262;-56
2022/01/24 09:49:27;;;;;;;6.40;4.20;;;23.60;46.10;;;;;;215582;1293;22598;-55
2022/01/24 09:54:31;;;;;;;9.90;4.30;;;23.60;46.20;;;;;;215508;1293;22596;-57
2022/01/24 09:59:36;;;;;;;6.30;4.00;;;23.60;46.20;;;;;;215697;1293;25598;-51
2022/01/24 10:04:40;;;;;;;7.60;4.10;;;23.60;46.70;;;;;;215669;1293;23202;-58
2022/01/24 10:09:54;;;;;;;5.20;3.40;;;23.70;46.00;;;;;;215525;1293;25435;-50
2022/01/24 10:20:27;;;;;;;6.00;3.80;;;23.80;46.00;;;;;;215405;1294;23202;-55
2022/01/24 10:25:32;;;;;;;5.60;3.70;;;23.80;45.80;;;;;;215711;1293;22574;-57
2022/01/24 10:30:36;;;;;;;6.10;3.80;;;23.70;46.00;;;;;;215582;1293;22756;-60
2022/01/24 10:35:46;;;;;;;6.10;3.60;;;23.70;46.30;;;;;;215366;1293;25309;-55
2022/01/24 10:42:11;;;;;;;5.10;3.40;;;23.70;46.30;;;;;;215166;1293;26338;-55
2022/01/24 10:46:33;;;;;;;5.70;3.60;;;23.70;46.00;;;;;;215263;1293;26712;-53
2022/01/24 10:51:44;;;;;;;6.10;3.90;;;23.80;46.00;;;;;;215656;1293;25403;-55
2022/01/24 10:56:54;;;;;;;7.70;3.90;;;23.90;46.10;;;;;;215657;1293;24323;-54
2022/01/24 11:02:01;;;;;;;7.00;3.70;;;23.90;45.70;;;;;;215423;1293;25473;-56
2022/01/24 11:07:05;;;;;;;6.70;3.60;;;23.90;46.30;;;;;;215926;1293;24267;-55
2022/01/24 11:12:13;;;;;;;6.40;3.90;;;23.90;45.70;;;;;;215617;1293;22609;-58
2022/01/24 11:17:29;;;;;;;;;;;23.90;45.60;;;;;;215750;1293;22576;-58
2022/01/24 11:22:40;;;;;;;5.00;3.50;;;24.00;45.60;;;;;;215283;1293;22595;-58
2022/01/24 11:27:47;;;;;;;7.40;3.90;;;24.00;45.80;;;;;;215320;1293;25538;-58
2022/01/24 11:33:10;;;;;;;5.80;3.40;;;24.00;45.60;;;;;;215457;1293;25554;-53
2022/01/24 11:38:38;;;;;;;6.00;3.90;;;24.00;46.10;;;;;;215499;1293;25756;-54
2022/01/24 11:43:50;;;;;;;5.40;3.80;;;24.10;45.60;;;;;;215229;1293;22611;-59
2022/01/24 11:49:04;;;;;;;5.70;3.90;;;24.30;45.50;;;;;;215649;1293;22583;-59
2022/01/24 11:54:56;;;;;;;9.80;3.80;;;24.20;45.60;;;;;;215569;1293;25625;-59
2022/01/24 12:00:11;;;;;;;6.90;3.80;;;24.10;46.20;;;;;;215190;1296;22607;-60
2022/01/24 12:05:20;;;;;;;7.10;3.90;;;24.20;45.80;;;;;;215699;1294;22772;-59
2022/01/24 12:10:44;;;;;;;8.30;4.60;;;24.10;45.70;;;;;;215704;1293;24337;-60
2022/01/24 12:15:55;;;;;;;6.00;4.00;;;24.00;45.50;;;;;;215560;1293;22645;-54
2022/01/24 12:21:09;;;;;;;5.90;4.00;;;24.10;45.80;;;;;;215476;1293;22657;-53
2022/01/24 12:26:12;;;;;;;7.00;4.80;;;24.20;45.80;;;;;;215755;1293;22648;-52
2022/01/24 12:31:34;;;;;;;6.00;3.90;;;24.30;45.60;;;;;;215594;1294;25495;-53
2022/01/24 12:36:51;;;;;;;7.30;4.50;;;24.30;45.50;;;;;;215490;1294;22595;-54
2022/01/24 12:42:27;;;;;;;11.20;5.10;;;24.30;45.60;;;;;;215494;1294;22624;-58
2022/01/24 12:47:31;;;;;;;7.50;4.90;;;24.40;45.60;;;;;;215405;1294;22619;-55
2022/01/24 12:52:39;;;;;;;6.80;4.40;;;24.30;45.70;;;;;;215372;1293;22571;-57
2022/01/24 12:57:43;;;;;;;7.30;4.50;;;24.30;45.60;;;;;;215509;1292;23634;-59
2022/01/24 13:02:47;;;;;;;7.50;4.50;;;24.30;46.00;;;;;;215595;1294;26927;-57
2022/01/24 13:07:56;;;;;;;6.60;4.70;;;24.30;45.70;;;;;;215763;1293;25514;-52
2022/01/24 13:13:10;;;;;;;5.90;4.20;;;24.30;45.60;;;;;;215682;1293;24394;-56
2022/01/24 13:24:00;;;;;;;6.30;4.40;;;24.30;46.10;;;;;;215472;1293;25588;-54
2022/01/24 13:29:05;;;;;;;7.20;4.80;;;24.40;45.60;;;;;;215709;1293;24494;-55
2022/01/24 13:34:11;;;;;;;8.00;4.50;;;24.50;45.80;;;;;;215785;1293;22624;-56
2022/01/24 13:39:15;;;;;;;6.70;4.40;;;24.40;45.40;;;;;;215564;1294;22658;-63
2022/01/24 13:44:20;;;;;;;7.00;4.30;;;24.50;45.50;;;;;;215523;1293;24512;-59
2022/01/24 13:49:28;;;;;;;6.50;4.20;;;24.50;45.50;;;;;;215785;1294;22608;-60
2022/01/24 13:54:34;;;;;;;6.90;4.60;;;24.50;45.50;;;;;;215543;1293;24435;-51
2022/01/24 13:59:39;;;;;;;7.30;4.40;;;24.40;45.60;;;;;;215477;1297;22583;-58
2022/01/24 14:04:49;;;;;;;6.70;4.10;;;24.40;45.60;;;;;;215673;1293;25756;-57
2022/01/24 14:09:53;;;;;;;7.20;4.20;;;24.20;46.30;;;;;;215780;1294;22569;-58
2022/01/24 14:15:13;;;;;;;6.20;4.20;;;24.10;46.30;;;;;;215491;1294;25574;-56
2022/01/24 14:20:20;;;;;;;6.90;4.60;;;23.90;46.70;;;;;;215663;1292;25436;-60
2022/01/24 14:25:29;;;;;;;6.70;4.80;;;23.70;47.30;;;;;;215504;1294;22605;-50
2022/01/24 14:30:37;;;;;;;7.60;4.70;;;23.50;47.30;;;;;;215358;1293;27610;-56
2022/01/24 14:35:53;;;;;;;5.60;3.90;;;23.30;48.20;;;;;;215405;1296;25309;-52
2022/01/24 14:41:02;;;;;;;7.70;4.70;;;23.30;47.90;;;;;;215914;1293;25381;-55
2022/01/24 14:46:09;;;;;;;7.20;4.40;;;23.60;47.80;;;;;;215444;1293;24306;-52
2022/01/24 14:51:15;;;;;;;6.00;4.30;;;23.80;47.00;;;;;;215730;1293;22910;-58
2022/01/24 14:56:19;;;;;;;5.60;4.00;;;23.90;46.60;;;;;;215712;1293;26435;-51
2022/01/24 15:01:28;;;;;;;6.70;4.40;;;24.00;46.60;;;;;;215478;1293;22767;-54
2022/01/24 15:06:34;;;;;;;6.70;4.70;;;24.10;46.40;;;;;;215856;1292;24267;-56
2022/01/24 15:11:44;;;;;;;9.00;4.20;;;24.10;46.10;;;;;;215730;1293;25535;-57
2022/01/24 15:16:55;;;;;;;7.40;4.00;;;24.00;46.10;;;;;;215667;1293;22621;-56
2022/01/24 15:27:24;;;;;;;9.60;4.50;;;24.10;46.10;;;;;;215148;1293;24344;-54
2022/01/24 15:32:28;;;;;;;7.60;4.70;;;24.10;46.10;;;;;;215519;1294;24339;-55
2022/01/24 15:37:32;;;;;;;7.40;4.30;;;24.10;46.50;;;;;;215457;1293;24425;-52
2022/01/24 15:52:48;;;;;;;7.80;4.90;;;24.10;47.10;;;;;;215647;1293;22649;-58
2022/01/24 15:58:03;;;;;;;10.30;5.60;;;24.10;47.00;;;;;;215004;1293;23930;-53
2022/01/24 16:03:10;;;;;;;10.20;5.50;;;24.10;47.60;;;;;;215328;1293;22703;-54
2022/01/24 16:08:21;;;;;;;8.50;5.20;;;24.10;47.70;;;;;;215524;1293;22641;-55
2022/01/24 16:13:31;;;;;;;8.90;5.90;;;24.10;48.40;;;;;;215349;1293;22573;-55
2022/01/24 16:18:53;;;;;;;8.30;5.40;;;24.20;48.50;;;;;;215335;1293;22602;-54
2022/01/24 16:29:13;;;;;;;9.30;5.30;;;24.20;48.60;;;;;;215063;1293;25442;-54
2022/01/24 16:34:20;;;;;;;10.00;5.30;;;24.20;49.00;;;;;;215108;1293;22646;-55
2022/01/24 16:39:30;;;;;;;9.90;6.00;;;24.20;48.60;;;;;;215079;1293;25595;-55
2022/01/24 16:44:56;;;;;;;9.20;6.00;;;24.20;48.60;;;;;;214942;1293;23739;-55
2022/01/24 16:50:14;;;;;;;7.70;5.10;;;24.30;48.20;;;;;;214773;1292;25480;-54
2022/01/24 16:55:20;;;;;;;9.20;5.30;;;24.30;47.80;;;;;;215080;1293;23957;-57
2022/01/24 17:00:24;;;;;;;17.10;5.80;;;24.30;48.20;;;;;;215333;1293;26622;-55
2022/01/24 17:05:38;;;;;;;12.40;4.90;;;24.40;47.90;;;;;;215427;1293;25495;-59
2022/01/24 17:10:49;;;;;;;11.40;6.30;;;24.50;47.80;;;;;;215341;1293;25371;-54
2022/01/24 17:15:59;;;;;;;10.90;6.80;;;24.50;47.50;;;;;;215256;1293;22612;-58
2022/01/24 17:21:24;;;;;;;10.70;6.20;;;24.50;47.20;;;;;;215175;1293;25573;-56
2022/01/24 17:27:08;;;;;;;9.60;6.30;;;24.40;47.40;;;;;;215446;1293;22758;-56
2022/01/24 17:32:30;;;;;;;12.40;7.00;;;24.20;47.90;;;;;;215077;1293;26996;-53
2022/01/24 17:37:37;;;;;;;14.10;6.90;;;24.00;48.50;;;;;;215404;1293;22591;-55
2022/01/24 17:42:43;;;;;;;13.70;6.20;;;23.90;48.90;;;;;;215440;1293;22596;-54
2022/01/24 17:47:50;;;;;;;11.50;6.20;;;23.80;49.10;;;;;;215557;1293;22700;-50
2022/01/24 17:53:11;;;;;;;13.40;6.60;;;23.60;49.60;;;;;;215160;1293;24366;-52
2022/01/24 17:58:16;;;;;;;13.80;7.00;;;23.50;51.40;;;;;;215295;1293;22612;-54
2022/01/24 18:03:24;;;;;;;13.00;7.20;;;23.40;51.50;;;;;;215365;1293;22665;-50
2022/01/24 18:08:41;;;;;;;10.70;6.80;;;23.20;51.60;;;;;;215255;1293;22843;-52
2022/01/24 18:14:08;;;;;;;13.40;7.00;;;23.20;51.70;;;;;;215385;1293;24268;-50
2022/01/24 18:19:27;;;;;;;13.50;7.40;;;23.10;51.70;;;;;;215114;1293;22739;-56
2022/01/24 18:24:35;;;;;;;12.20;6.90;;;23.00;51.70;;;;;;215660;1293;24095;-54
2022/01/24 18:29:42;;;;;;;10.80;6.40;;;22.90;52.10;;;;;;215739;1293;22596;-57
2022/01/24 18:34:52;;;;;;;14.70;6.50;;;22.90;51.60;;;;;;215331;1292;22577;-57
2022/01/24 18:39:59;;;;;;;10.60;6.40;;;22.80;51.80;;;;;;215140;1296;25548;-52
2022/01/24 18:45:09;;;;;;;12.60;6.60;;;22.80;52.00;;;;;;215537;1293;25438;-58
2022/01/24 18:50:20;;;;;;;15.20;8.30;;;22.70;51.70;;;;;;215414;1293;22589;-59
2022/01/24 18:55:24;;;;;;;17.50;7.60;;;22.70;52.50;;;;;;215261;1293;22902;-58
2022/01/24 19:00:28;;;;;;;16.00;7.90;;;22.70;52.60;;;;;;215236;1293;22629;-59
2022/01/24 19:05:34;;;;;;;12.30;7.40;;;22.90;52.20;;;;;;215455;1292;25638;-58
2022/01/24 19:10:40;;;;;;;14.70;7.50;;;23.20;51.60;;;;;;215527;1293;24310;-60
2022/01/24 19:15:48;;;;;;;13.70;7.00;;;23.60;50.40;;;;;;215561;1293;25775;-60
2022/01/24 19:26:21;;;;;;;17.30;7.80;;;23.80;50.10;;;;;;215263;1293;22606;-59
2022/01/24 19:31:26;;;;;;;20.50;7.30;;;23.90;49.60;;;;;;215279;1293;22755;-60
2022/01/24 19:36:34;;;;;;;20.90;8.20;;;23.80;50.30;;;;;;215616;1293;23934;-59
2022/01/24 19:41:41;;;;;;;14.50;6.90;;;23.60;53.30;;;;;;215406;1293;24301;-59
2022/01/24 19:46:56;;;;;;;19.50;7.10;;;23.40;54.40;;;;;;215324;1293;23091;-53
2022/01/24 19:52:08;;;;;;;25.60;8.90;;;23.40;56.10;;;;;;215700;1293;24489;-52
2022/01/24 19:57:36;;;;;;;19.80;7.90;;;23.50;56.40;;;;;;215250;1293;22624;-54
2022/01/24 20:02:42;;;;;;;21.90;8.00;;;23.40;58.10;;;;;;215373;1293;24428;-56
2022/01/24 20:07:49;;;;;;;23.60;7.90;;;23.50;58.50;;;;;;215532;1293;22642;-56
2022/01/24 20:13:06;;;;;;;16.30;8.10;;;23.60;59.30;;;;;;215287;1293;22606;-53
2022/01/24 20:18:18;;;;;;;24.50;8.40;;;23.60;58.80;;;;;;215410;1293;22743;-53
2022/01/24 20:23:25;;;;;;;18.90;8.20;;;23.60;59.20;;;;;;215595;1293;25507;-56
2022/01/24 20:28:34;;;;;;;15.80;7.70;;;23.60;59.40;;;;;;215521;1293;22599;-55
2022/01/24 20:33:41;;;;;;;17.30;8.50;;;23.60;58.70;;;;;;215656;1293;25621;-55
2022/01/24 20:38:48;;;;;;;14.20;8.10;;;23.60;59.20;;;;;;215542;1293;25634;-53
2022/01/24 20:43:52;;;;;;;18.10;8.50;;;23.60;58.30;;;;;;215458;1293;25612;-55
2022/01/24 20:49:04;;;;;;;17.00;8.10;;;23.60;58.70;;;;;;215445;1293;22614;-56
2022/01/24 20:54:12;;;;;;;14.50;8.40;;;23.60;58.40;;;;;;215607;1293;22664;-49
2022/01/24 20:59:20;;;;;;;17.60;7.50;;;23.60;58.40;;;;;;215486;1293;25375;-53
2022/01/24 21:04:27;;;;;;;17.70;7.50;;;23.70;58.80;;;;;;215539;1293;22602;-55
2022/01/24 21:09:34;;;;;;;18.40;8.50;;;23.80;58.20;;;;;;215521;1292;22662;-55
2022/01/24 21:14:39;;;;;;;16.00;8.50;;;23.80;57.50;;;;;;215461;1293;22848;-53
2022/01/24 21:19:47;;;;;;;17.50;8.20;;;23.60;57.90;;;;;;215192;1293;22671;-54
2022/01/24 21:24:56;;;;;;;25.00;9.30;;;23.50;58.10;;;;;;215927;1293;25415;-53
2022/01/24 21:30:34;;;;;;;;;;;;;;;;;;;;;
2022/01/24 21:35:46;;;;;;;28.60;8.90;;;23.80;61.50;;;;;;215911;1293;22594;-51
2022/01/24 21:40:55;;;;;;;20.00;9.10;;;23.90;62.20;;;;;;215599;1293;22668;-55
2022/01/24 21:46:04;;;;;;;21.40;8.90;;;24.00;61.70;;;;;;215461;1293;25553;-55
2022/01/24 21:51:13;;;;;;;16.90;8.10;;;23.90;62.30;;;;;;215463;1293;22594;-53
2022/01/24 21:56:40;;;;;;;22.30;9.30;;;23.80;62.30;;;;;;215542;1293;22599;-53
2022/01/24 22:02:01;;;;;;;17.10;8.80;;;23.70;62.60;;;;;;215688;1293;22888;-54
2022/01/24 22:12:49;;;;;;;16.20;7.70;;;23.50;62.60;;;;;;215606;1293;22725;-53
2022/01/24 22:18:03;;;;;;;16.60;8.10;;;23.40;62.70;;;;;;215491;1293;22573;-56
2022/01/24 22:23:31;;;;;;;16.30;8.20;;;23.30;62.10;;;;;;215434;1293;24266;-53
2022/01/24 22:28:39;;;;;;;13.20;8.10;;;23.20;62.10;;;;;;215492;1293;22576;-54
2022/01/24 22:33:44;;;;;;;13.50;8.10;;;23.00;61.90;;;;;;215456;1293;22744;-51
2022/01/24 22:38:48;;;;;;;16.00;8.00;;;22.90;62.40;;;;;;215651;1293;22579;-53
2022/01/24 22:43:52;;;;;;;17.20;8.00;;;22.80;62.80;;;;;;215505;1293;22624;-54
2022/01/24 22:48:59;;;;;;;13.80;7.90;;;22.80;62.50;;;;;;215566;1293;22625;-54
2022/01/24 22:54:09;;;;;;;15.80;8.40;;;22.70;62.50;;;;;;215501;1293;26960;-52
2022/01/24 22:59:15;;;;;;;17.00;8.60;;;22.60;62.60;;;;;;215495;1292;22588;-51
2022/01/24 23:04:23;;;;;;;12.60;6.70;;;22.50;62.90;;;;;;215453;1293;25344;-55
2022/01/24 23:09:44;;;;;;;17.10;7.70;;;22.40;63.20;;;;;;215476;1293;24350;-51
2022/01/24 23:20:17;;;;;;;14.80;7.40;;;22.70;62.60;;;;;;215462;1293;22594;-54
2022/01/24 23:25:22;;;;;;;13.40;7.20;;;22.90;61.80;;;;;;215828;1293;22760;-50
2022/01/24 23:30:33;;;;;;;13.30;7.80;;;23.10;61.70;;;;;;215808;1293;22736;-53
2022/01/24 23:41:14;;;;;;;16.20;7.90;;;23.30;60.60;;;;;;215634;1293;24447;-53
2022/01/24 23:46:22;;;;;;;11.00;6.50;;;23.40;60.50;;;;;;215564;1296;23103;-53
2022/01/24 23:51:28;;;;;;;11.80;6.50;;;23.50;60.50;;;;;;215388;1293;25375;-52
2022/01/24 23:56:55;;;;;;;14.00;6.50;;;23.50;60.60;;;;;;215664;1293;25614;-52
